Terminal Aerodrome Forecast
Issued by NWS

Current Version | Previous Version | Graphics & Text | Print | Product List | Glossary On
Versions: 1 2 3 4 5 6 7 8 9 10 11 12 13 14 15 16 17 18
000
FTUS41 KILN 250810 AAA
TAFLCK
TAF AMD
KLCK 250810Z 2508/2606 30012KT P6SM OVC050
      TEMPO 2508/2512 BKN025
     FM251300 26017G27KT P6SM OVC025
     FM252100 26017G27KT P6SM OVC035
     FM260100 28012G20KT P6SM BKN040=

USA.gov is the U.S. government's official web portal to all federal, state and local government web resources and services.